sensor_id;sensor_type;location;lat;lon;timestamp;P1;durP1;ratioP1;P2;durP2;ratioP2
39370;SDS011;25099;51.946;4.838;2023-04-15T00:00:50;7.93;;;3.97;;
39370;SDS011;25099;51.946;4.838;2023-04-15T00:03:22;9.52;;;3.60;;
39370;SDS011;25099;51.946;4.838;2023-04-15T00:06:06;9.88;;;3.75;;
39370;SDS011;25099;51.946;4.838;2023-04-15T00:08:32;10.10;;;3.97;;
39370;SDS011;25099;51.946;4.838;2023-04-15T00:11:18;5.85;;;3.55;;
39370;SDS011;25099;51.946;4.838;2023-04-15T00:16:30;6.00;;;3.65;;
39370;SDS011;25099;51.946;4.838;2023-04-15T00:21:43;9.40;;;3.85;;
39370;SDS011;25099;51.946;4.838;2023-04-15T00:24:18;5.13;;;3.95;;
39370;SDS011;25099;51.946;4.838;2023-04-15T00:26:44;10.30;;;5.03;;
39370;SDS011;25099;51.946;4.838;2023-04-15T00:29:12;6.47;;;3.55;;
39370;SDS011;25099;51.946;4.838;2023-04-15T00:34:30;6.13;;;4.50;;
39370;SDS011;25099;51.946;4.838;2023-04-15T00:36:55;4.70;;;3.75;;
39370;SDS011;25099;51.946;4.838;2023-04-15T00:39:24;7.55;;;4.30;;
39370;SDS011;25099;51.946;4.838;2023-04-15T00:42:05;6.40;;;4.43;;
39370;SDS011;25099;51.946;4.838;2023-04-15T00:44:31;5.70;;;4.20;;
39370;SDS011;25099;51.946;4.838;2023-04-15T00:47:12;10.63;;;4.68;;
39370;SDS011;25099;51.946;4.838;2023-04-15T00:49:57;11.13;;;4.40;;
39370;SDS011;25099;51.946;4.838;2023-04-15T00:52:23;8.07;;;4.60;;
39370;SDS011;25099;51.946;4.838;2023-04-15T00:57:34;7.22;;;4.60;;
39370;SDS011;25099;51.946;4.838;2023-04-15T01:00:00;8.60;;;4.63;;
39370;SDS011;25099;51.946;4.838;2023-04-15T01:02:42;11.27;;;4.72;;
39370;SDS011;25099;51.946;4.838;2023-04-15T01:05:07;8.63;;;4.70;;
39370;SDS011;25099;51.946;4.838;2023-04-15T01:07:45;5.57;;;4.55;;
39370;SDS011;25099;51.946;4.838;2023-04-15T01:10:12;10.27;;;4.68;;
39370;SDS011;25099;51.946;4.838;2023-04-15T01:12:55;7.97;;;5.28;;
39370;SDS011;25099;51.946;4.838;2023-04-15T01:15:21;8.65;;;5.00;;
39370;SDS011;25099;51.946;4.838;2023-04-15T01:18:03;7.93;;;4.57;;
39370;SDS011;25099;51.946;4.838;2023-04-15T01:20:29;6.32;;;4.88;;
39370;SDS011;25099;51.946;4.838;2023-04-15T01:23:12;6.95;;;5.00;;
39370;SDS011;25099;51.946;4.838;2023-04-15T01:25:38;10.75;;;5.65;;
39370;SDS011;25099;51.946;4.838;2023-04-15T01:28:24;15.27;;;4.95;;
39370;SDS011;25099;51.946;4.838;2023-04-15T01:31:13;5.90;;;4.78;;
39370;SDS011;25099;51.946;4.838;2023-04-15T01:33:57;8.40;;;5.70;;
39370;SDS011;25099;51.946;4.838;2023-04-15T01:36:26;8.48;;;4.95;;
39370;SDS011;25099;51.946;4.838;2023-04-15T01:39:01;10.45;;;6.13;;
39370;SDS011;25099;51.946;4.838;2023-04-15T01:41:27;10.75;;;5.88;;
39370;SDS011;25099;51.946;4.838;2023-04-15T01:43:53;9.60;;;5.75;;
39370;SDS011;25099;51.946;4.838;2023-04-15T01:46:25;8.18;;;5.03;;
39370;SDS011;25099;51.946;4.838;2023-04-15T01:48:51;8.75;;;5.22;;
39370;SDS011;25099;51.946;4.838;2023-04-15T01:51:35;8.55;;;5.40;;
39370;SDS011;25099;51.946;4.838;2023-04-15T01:54:00;9.98;;;5.45;;
39370;SDS011;25099;51.946;4.838;2023-04-15T01:56:44;9.88;;;5.13;;
39370;SDS011;25099;51.946;4.838;2023-04-15T01:59:10;11.88;;;6.22;;
39370;SDS011;25099;51.946;4.838;2023-04-15T02:01:54;8.98;;;5.93;;
39370;SDS011;25099;51.946;4.838;2023-04-15T02:04:20;7.07;;;5.22;;
39370;SDS011;25099;51.946;4.838;2023-04-15T02:06:45;9.50;;;5.75;;
39370;SDS011;25099;51.946;4.838;2023-04-15T02:11:58;10.38;;;5.43;;
39370;SDS011;25099;51.946;4.838;2023-04-15T02:14:31;9.98;;;5.93;;
39370;SDS011;25099;51.946;4.838;2023-04-15T02:16:57;9.77;;;5.40;;
39370;SDS011;25099;51.946;4.838;2023-04-15T02:19:48;8.60;;;5.78;;
39370;SDS011;25099;51.946;4.838;2023-04-15T02:22:14;6.50;;;5.50;;
39370;SDS011;25099;51.946;4.838;2023-04-15T02:24:42;5.93;;;4.97;;
39370;SDS011;25099;51.946;4.838;2023-04-15T02:27:08;5.80;;;5.03;;
39370;SDS011;25099;51.946;4.838;2023-04-15T02:29:46;7.45;;;5.70;;
39370;SDS011;25099;51.946;4.838;2023-04-15T02:32:12;8.93;;;5.63;;
39370;SDS011;25099;51.946;4.838;2023-04-15T02:37:29;7.32;;;5.53;;
39370;SDS011;25099;51.946;4.838;2023-04-15T02:40:14;8.43;;;5.80;;
39370;SDS011;25099;51.946;4.838;2023-04-15T02:42:39;10.38;;;6.40;;
39370;SDS011;25099;51.946;4.838;2023-04-15T02:45:24;7.88;;;5.88;;
39370;SDS011;25099;51.946;4.838;2023-04-15T02:47:52;7.00;;;5.55;;
39370;SDS011;25099;51.946;4.838;2023-04-15T02:50:36;8.20;;;6.30;;
39370;SDS011;25099;51.946;4.838;2023-04-15T02:53:05;11.40;;;5.03;;
39370;SDS011;25099;51.946;4.838;2023-04-15T02:55:31;6.28;;;5.07;;
39370;SDS011;25099;51.946;4.838;2023-04-15T02:57:56;7.82;;;5.35;;
39370;SDS011;25099;51.946;4.838;2023-04-15T03:00:41;8.55;;;5.47;;
39370;SDS011;25099;51.946;4.838;2023-04-15T03:03:06;6.63;;;5.85;;
39370;SDS011;25099;51.946;4.838;2023-04-15T03:05:50;8.50;;;5.40;;
39370;SDS011;25099;51.946;4.838;2023-04-15T03:08:16;6.90;;;6.20;;
39370;SDS011;25099;51.946;4.838;2023-04-15T03:13:57;7.32;;;5.80;;
39370;SDS011;25099;51.946;4.838;2023-04-15T03:16:23;8.25;;;6.20;;
39370;SDS011;25099;51.946;4.838;2023-04-15T03:18:49;9.40;;;6.75;;
39370;SDS011;25099;51.946;4.838;2023-04-15T03:21:30;9.35;;;6.45;;
39370;SDS011;25099;51.946;4.838;2023-04-15T03:29:09;8.95;;;6.15;;
39370;SDS011;25099;51.946;4.838;2023-04-15T03:31:52;7.43;;;5.95;;
39370;SDS011;25099;51.946;4.838;2023-04-15T03:34:18;7.97;;;5.70;;
39370;SDS011;25099;51.946;4.838;2023-04-15T03:37:02;8.20;;;5.78;;
39370;SDS011;25099;51.946;4.838;2023-04-15T03:39:28;10.57;;;6.53;;
39370;SDS011;25099;51.946;4.838;2023-04-15T03:44:39;6.43;;;5.82;;
39370;SDS011;25099;51.946;4.838;2023-04-15T03:47:05;9.88;;;6.07;;
39370;SDS011;25099;51.946;4.838;2023-04-15T03:49:49;10.77;;;6.93;;
39370;SDS011;25099;51.946;4.838;2023-04-15T03:52:15;6.63;;;5.72;;
39370;SDS011;25099;51.946;4.838;2023-04-15T03:54:41;8.45;;;5.60;;
39370;SDS011;25099;51.946;4.838;2023-04-15T03:57:24;11.57;;;6.30;;
39370;SDS011;25099;51.946;4.838;2023-04-15T03:59:50;6.50;;;5.78;;
39370;SDS011;25099;51.946;4.838;2023-04-15T04:02:16;7.18;;;6.13;;
39370;SDS011;25099;51.946;4.838;2023-04-15T04:07:28;9.48;;;6.03;;
39370;SDS011;25099;51.946;4.838;2023-04-15T04:10:06;8.23;;;6.93;;
39370;SDS011;25099;51.946;4.838;2023-04-15T04:12:32;6.20;;;5.60;;
39370;SDS011;25099;51.946;4.838;2023-04-15T04:15:11;9.15;;;6.43;;
39370;SDS011;25099;51.946;4.838;2023-04-15T04:17:37;14.07;;;6.43;;
39370;SDS011;25099;51.946;4.838;2023-04-15T04:20:02;6.70;;;5.90;;
39370;SDS011;25099;51.946;4.838;2023-04-15T04:22:49;9.32;;;5.40;;
39370;SDS011;25099;51.946;4.838;2023-04-15T04:27:58;8.55;;;5.93;;
39370;SDS011;25099;51.946;4.838;2023-04-15T04:30:24;7.93;;;6.03;;
39370;SDS011;25099;51.946;4.838;2023-04-15T04:32:56;6.50;;;5.90;;
39370;SDS011;25099;51.946;4.838;2023-04-15T04:35:24;7.97;;;6.68;;
39370;SDS011;25099;51.946;4.838;2023-04-15T04:38:07;7.40;;;6.00;;
39370;SDS011;25099;51.946;4.838;2023-04-15T04:40:48;7.97;;;6.07;;
39370;SDS011;25099;51.946;4.838;2023-04-15T04:43:32;8.63;;;6.30;;
39370;SDS011;25099;51.946;4.838;2023-04-15T04:46:10;9.18;;;5.95;;
39370;SDS011;25099;51.946;4.838;2023-04-15T04:48:52;8.52;;;6.75;;
39370;SDS011;25099;51.946;4.838;2023-04-15T04:51:22;7.18;;;6.25;;
39370;SDS011;25099;51.946;4.838;2023-04-15T04:53:59;8.73;;;6.85;;
39370;SDS011;25099;51.946;4.838;2023-04-15T04:56:43;9.60;;;6.72;;
39370;SDS011;25099;51.946;4.838;2023-04-15T04:59:24;8.07;;;6.57;;
39370;SDS011;25099;51.946;4.838;2023-04-15T05:01:53;8.98;;;6.38;;
39370;SDS011;25099;51.946;4.838;2023-04-15T05:04:33;7.75;;;6.10;;
39370;SDS011;25099;51.946;4.838;2023-04-15T05:07:00;9.43;;;6.40;;
39370;SDS011;25099;51.946;4.838;2023-04-15T05:09:26;6.95;;;6.25;;
39370;SDS011;25099;51.946;4.838;2023-04-15T05:12:01;6.88;;;6.28;;
39370;SDS011;25099;51.946;4.838;2023-04-15T05:14:30;6.47;;;5.65;;
39370;SDS011;25099;51.946;4.838;2023-04-15T05:17:11;7.85;;;6.53;;
39370;SDS011;25099;51.946;4.838;2023-04-15T05:19:37;8.05;;;6.30;;
39370;SDS011;25099;51.946;4.838;2023-04-15T05:24:47;7.07;;;6.38;;
39370;SDS011;25099;51.946;4.838;2023-04-15T05:27:22;7.85;;;6.40;;
39370;SDS011;25099;51.946;4.838;2023-04-15T05:30:04;7.10;;;6.40;;
39370;SDS011;25099;51.946;4.838;2023-04-15T05:32:33;8.73;;;6.60;;
39370;SDS011;25099;51.946;4.838;2023-04-15T05:34:59;7.55;;;6.20;;
39370;SDS011;25099;51.946;4.838;2023-04-15T05:37:25;10.27;;;7.15;;
39370;SDS011;25099;51.946;4.838;2023-04-15T05:40:00;7.07;;;6.28;;
39370;SDS011;25099;51.946;4.838;2023-04-15T05:42:26;13.40;;;6.68;;
39370;SDS011;25099;51.946;4.838;2023-04-15T05:44:51;8.20;;;6.72;;
39370;SDS011;25099;51.946;4.838;2023-04-15T05:47:17;8.60;;;6.50;;
39370;SDS011;25099;51.946;4.838;2023-04-15T05:49:42;8.63;;;6.90;;
39370;SDS011;25099;51.946;4.838;2023-04-15T05:52:08;6.97;;;6.10;;
39370;SDS011;25099;51.946;4.838;2023-04-15T05:54:33;8.10;;;6.25;;
39370;SDS011;25099;51.946;4.838;2023-04-15T05:56:59;8.45;;;6.22;;
39370;SDS011;25099;51.946;4.838;2023-04-15T05:59:25;6.88;;;6.18;;
39370;SDS011;25099;51.946;4.838;2023-04-15T06:01:52;8.23;;;6.35;;
39370;SDS011;25099;51.946;4.838;2023-04-15T06:04:17;7.35;;;6.65;;
39370;SDS011;25099;51.946;4.838;2023-04-15T06:06:43;8.70;;;6.75;;
39370;SDS011;25099;51.946;4.838;2023-04-15T06:09:09;7.38;;;6.70;;
39370;SDS011;25099;51.946;4.838;2023-04-15T06:11:35;9.13;;;6.85;;
39370;SDS011;25099;51.946;4.838;2023-04-15T06:14:01;8.52;;;7.10;;
39370;SDS011;25099;51.946;4.838;2023-04-15T06:16:38;8.50;;;6.55;;
39370;SDS011;25099;51.946;4.838;2023-04-15T06:19:04;10.10;;;7.57;;
39370;SDS011;25099;51.946;4.838;2023-04-15T06:21:41;9.25;;;7.68;;
39370;SDS011;25099;51.946;4.838;2023-04-15T06:24:07;8.57;;;7.75;;
39370;SDS011;25099;51.946;4.838;2023-04-15T06:26:49;8.82;;;7.35;;
39370;SDS011;25099;51.946;4.838;2023-04-15T06:29:15;12.18;;;8.02;;
39370;SDS011;25099;51.946;4.838;2023-04-15T06:31:59;8.27;;;7.47;;
39370;SDS011;25099;51.946;4.838;2023-04-15T06:34:42;10.07;;;8.30;;
39370;SDS011;25099;51.946;4.838;2023-04-15T06:37:07;11.05;;;8.32;;
39370;SDS011;25099;51.946;4.838;2023-04-15T06:39:35;8.48;;;7.68;;
39370;SDS011;25099;51.946;4.838;2023-04-15T06:42:01;9.88;;;8.60;;
39370;SDS011;25099;51.946;4.838;2023-04-15T06:44:28;10.73;;;8.80;;
39370;SDS011;25099;51.946;4.838;2023-04-15T06:46:53;11.93;;;8.48;;
39370;SDS011;25099;51.946;4.838;2023-04-15T06:49:19;9.23;;;7.85;;
39370;SDS011;25099;51.946;4.838;2023-04-15T06:51:44;9.10;;;7.95;;
39370;SDS011;25099;51.946;4.838;2023-04-15T06:54:10;9.70;;;8.60;;
39370;SDS011;25099;51.946;4.838;2023-04-15T06:56:36;11.10;;;8.52;;
39370;SDS011;25099;51.946;4.838;2023-04-15T06:59:02;9.48;;;8.63;;
39370;SDS011;25099;51.946;4.838;2023-04-15T07:01:28;10.57;;;8.98;;
39370;SDS011;25099;51.946;4.838;2023-04-15T07:03:53;9.85;;;8.88;;
39370;SDS011;25099;51.946;4.838;2023-04-15T07:06:19;10.77;;;9.68;;
39370;SDS011;25099;51.946;4.838;2023-04-15T07:08:45;11.55;;;8.45;;
39370;SDS011;25099;51.946;4.838;2023-04-15T07:11:11;13.02;;;8.70;;
39370;SDS011;25099;51.946;4.838;2023-04-15T07:13:37;10.63;;;8.77;;
39370;SDS011;25099;51.946;4.838;2023-04-15T07:16:02;11.40;;;9.45;;
39370;SDS011;25099;51.946;4.838;2023-04-15T07:18:28;14.10;;;8.68;;
39370;SDS011;25099;51.946;4.838;2023-04-15T07:20:53;12.25;;;9.45;;
39370;SDS011;25099;51.946;4.838;2023-04-15T07:23:20;12.10;;;8.73;;
39370;SDS011;25099;51.946;4.838;2023-04-15T07:25:45;11.30;;;9.10;;
39370;SDS011;25099;51.946;4.838;2023-04-15T07:28:11;9.20;;;8.30;;
39370;SDS011;25099;51.946;4.838;2023-04-15T07:30:37;8.95;;;8.13;;
39370;SDS011;25099;51.946;4.838;2023-04-15T07:33:02;10.20;;;8.98;;
39370;SDS011;25099;51.946;4.838;2023-04-15T07:35:28;9.40;;;8.50;;
39370;SDS011;25099;51.946;4.838;2023-04-15T07:37:53;11.05;;;8.27;;
39370;SDS011;25099;51.946;4.838;2023-04-15T07:40:19;10.13;;;9.13;;
39370;SDS011;25099;51.946;4.838;2023-04-15T07:42:46;10.32;;;9.20;;
39370;SDS011;25099;51.946;4.838;2023-04-15T07:45:13;12.70;;;8.60;;
39370;SDS011;25099;51.946;4.838;2023-04-15T07:47:38;9.00;;;7.50;;
39370;SDS011;25099;51.946;4.838;2023-04-15T07:50:05;10.32;;;8.57;;
39370;SDS011;25099;51.946;4.838;2023-04-15T07:52:32;11.80;;;8.10;;
39370;SDS011;25099;51.946;4.838;2023-04-15T07:55:03;9.75;;;7.60;;
39370;SDS011;25099;51.946;4.838;2023-04-15T07:57:30;9.70;;;8.13;;
39370;SDS011;25099;51.946;4.838;2023-04-15T07:59:55;9.73;;;7.93;;
39370;SDS011;25099;51.946;4.838;2023-04-15T08:02:21;8.43;;;7.40;;
39370;SDS011;25099;51.946;4.838;2023-04-15T08:04:46;10.43;;;7.22;;
39370;SDS011;25099;51.946;4.838;2023-04-15T08:07:12;8.30;;;7.45;;
39370;SDS011;25099;51.946;4.838;2023-04-15T08:09:38;7.97;;;6.95;;
39370;SDS011;25099;51.946;4.838;2023-04-15T08:12:03;10.70;;;7.22;;
39370;SDS011;25099;51.946;4.838;2023-04-15T08:14:32;7.13;;;6.45;;
39370;SDS011;25099;51.946;4.838;2023-04-15T08:17:08;6.68;;;6.07;;
39370;SDS011;25099;51.946;4.838;2023-04-15T08:22:03;6.28;;;5.72;;
39370;SDS011;25099;51.946;4.838;2023-04-15T08:24:44;6.88;;;5.35;;
39370;SDS011;25099;51.946;4.838;2023-04-15T08:30:07;6.72;;;6.10;;
39370;SDS011;25099;51.946;4.838;2023-04-15T08:32:46;11.57;;;6.88;;
39370;SDS011;25099;51.946;4.838;2023-04-15T08:35:12;9.57;;;6.75;;
39370;SDS011;25099;51.946;4.838;2023-04-15T08:37:40;7.03;;;6.32;;
39370;SDS011;25099;51.946;4.838;2023-04-15T08:40:10;10.00;;;6.32;;
39370;SDS011;25099;51.946;4.838;2023-04-15T08:57:42;9.43;;;7.30;;
39370;SDS011;25099;51.946;4.838;2023-04-15T09:00:23;16.65;;;7.03;;
39370;SDS011;25099;51.946;4.838;2023-04-15T09:02:49;7.53;;;6.72;;
39370;SDS011;25099;51.946;4.838;2023-04-15T09:05:35;7.20;;;5.68;;
39370;SDS011;25099;51.946;4.838;2023-04-15T09:08:16;7.68;;;6.00;;
39370;SDS011;25099;51.946;4.838;2023-04-15T09:10:45;8.40;;;4.47;;
39370;SDS011;25099;51.946;4.838;2023-04-15T09:13:26;7.65;;;4.90;;
39370;SDS011;25099;51.946;4.838;2023-04-15T09:18:30;5.75;;;5.13;;
39370;SDS011;25099;51.946;4.838;2023-04-15T09:26:41;8.32;;;5.88;;
39370;SDS011;25099;51.946;4.838;2023-04-15T09:31:55;5.47;;;4.97;;
39370;SDS011;25099;51.946;4.838;2023-04-15T09:34:41;15.68;;;5.47;;
39370;SDS011;25099;51.946;4.838;2023-04-15T09:37:07;14.45;;;5.60;;
39370;SDS011;25099;51.946;4.838;2023-04-15T09:39:52;22.80;;;4.70;;
39370;SDS011;25099;51.946;4.838;2023-04-15T09:42:18;5.60;;;4.15;;
39370;SDS011;25099;51.946;4.838;2023-04-15T09:45:12;7.80;;;4.63;;
39370;SDS011;25099;51.946;4.838;2023-04-15T09:50:58;8.43;;;5.78;;
39370;SDS011;25099;51.946;4.838;2023-04-15T09:53:25;6.45;;;5.85;;
39370;SDS011;25099;51.946;4.838;2023-04-15T09:56:10;7.35;;;5.30;;
39370;SDS011;25099;51.946;4.838;2023-04-15T09:58:36;7.05;;;5.40;;
39370;SDS011;25099;51.946;4.838;2023-04-15T10:01:11;7.45;;;5.22;;
39370;SDS011;25099;51.946;4.838;2023-04-15T10:03:37;6.45;;;3.33;;
39370;SDS011;25099;51.946;4.838;2023-04-15T10:06:06;4.53;;;2.90;;
39370;SDS011;25099;51.946;4.838;2023-04-15T10:08:38;3.58;;;3.10;;
39370;SDS011;25099;51.946;4.838;2023-04-15T10:11:25;4.93;;;3.50;;
39370;SDS011;25099;51.946;4.838;2023-04-15T10:14:05;9.57;;;3.63;;
39370;SDS011;25099;51.946;4.838;2023-04-15T10:16:47;5.93;;;4.10;;
39370;SDS011;25099;51.946;4.838;2023-04-15T10:19:26;5.47;;;4.10;;
39370;SDS011;25099;51.946;4.838;2023-04-15T10:22:13;4.22;;;3.15;;
39370;SDS011;25099;51.946;4.838;2023-04-15T10:24:57;5.35;;;4.28;;
39370;SDS011;25099;51.946;4.838;2023-04-15T10:30:22;3.83;;;2.97;;
39370;SDS011;25099;51.946;4.838;2023-04-15T10:32:47;5.20;;;3.33;;
39370;SDS011;25099;51.946;4.838;2023-04-15T10:35:32;4.10;;;2.78;;
39370;SDS011;25099;51.946;4.838;2023-04-15T10:37:58;5.03;;;2.20;;
39370;SDS011;25099;51.946;4.838;2023-04-15T10:40:46;5.18;;;2.95;;
39370;SDS011;25099;51.946;4.838;2023-04-15T10:43:24;5.55;;;4.18;;
39370;SDS011;25099;51.946;4.838;2023-04-15T10:46:08;4.13;;;3.75;;
39370;SDS011;25099;51.946;4.838;2023-04-15T10:48:34;3.50;;;3.20;;
39370;SDS011;25099;51.946;4.838;2023-04-15T10:53:54;3.22;;;2.55;;
39370;SDS011;25099;51.946;4.838;2023-04-15T10:56:32;3.30;;;3.00;;
39370;SDS011;25099;51.946;4.838;2023-04-15T10:59:13;4.30;;;3.63;;
39370;SDS011;25099;51.946;4.838;2023-04-15T11:10:49;8.35;;;3.60;;
39370;SDS011;25099;51.946;4.838;2023-04-15T11:12:57;5.97;;;3.47;;
39370;SDS011;25099;51.946;4.838;2023-04-15T11:15:34;4.57;;;3.53;;
39370;SDS011;25099;51.946;4.838;2023-04-15T11:20:42;24.10;;;5.78;;
39370;SDS011;25099;51.946;4.838;2023-04-15T11:23:13;6.85;;;3.80;;
39370;SDS011;25099;51.946;4.838;2023-04-15T11:25:39;5.75;;;5.20;;
39370;SDS011;25099;51.946;4.838;2023-04-15T11:28:05;6.15;;;5.45;;
39370;SDS011;25099;51.946;4.838;2023-04-15T11:30:34;5.07;;;4.53;;
39370;SDS011;25099;51.946;4.838;2023-04-15T11:33:05;4.95;;;4.35;;
39370;SDS011;25099;51.946;4.838;2023-04-15T11:35:34;6.07;;;4.53;;
39370;SDS011;25099;51.946;4.838;2023-04-15T11:38:03;13.68;;;5.10;;
39370;SDS011;25099;51.946;4.838;2023-04-15T11:40:30;6.50;;;4.53;;
39370;SDS011;25099;51.946;4.838;2023-04-15T11:43:04;8.27;;;5.05;;
39370;SDS011;25099;51.946;4.838;2023-04-15T11:45:38;4.38;;;3.97;;
39370;SDS011;25099;51.946;4.838;2023-04-15T11:48:23;4.80;;;4.30;;
39370;SDS011;25099;51.946;4.838;2023-04-15T11:50:53;13.73;;;4.60;;
39370;SDS011;25099;51.946;4.838;2023-04-15T11:53:24;14.38;;;4.88;;
39370;SDS011;25099;51.946;4.838;2023-04-15T11:56:07;7.18;;;4.22;;
39370;SDS011;25099;51.946;4.838;2023-04-15T11:58:35;6.68;;;4.05;;
39370;SDS011;25099;51.946;4.838;2023-04-15T12:01:02;6.05;;;4.30;;
39370;SDS011;25099;51.946;4.838;2023-04-15T12:03:29;4.85;;;4.38;;
39370;SDS011;25099;51.946;4.838;2023-04-15T12:11:33;6.85;;;3.95;;
39370;SDS011;25099;51.946;4.838;2023-04-15T12:17:06;4.38;;;3.97;;
39370;SDS011;25099;51.946;4.838;2023-04-15T12:19:36;6.00;;;4.43;;
39370;SDS011;25099;51.946;4.838;2023-04-15T12:22:04;6.30;;;4.05;;
39370;SDS011;25099;51.946;4.838;2023-04-15T12:24:31;4.10;;;3.80;;
39370;SDS011;25099;51.946;4.838;2023-04-15T12:27:00;4.78;;;4.05;;
39370;SDS011;25099;51.946;4.838;2023-04-15T12:29:28;4.65;;;3.97;;
39370;SDS011;25099;51.946;4.838;2023-04-15T12:34:27;5.85;;;3.40;;
39370;SDS011;25099;51.946;4.838;2023-04-15T12:36:55;30.95;;;5.25;;
39370;SDS011;25099;51.946;4.838;2023-04-15T12:39:22;6.03;;;2.88;;
39370;SDS011;25099;51.946;4.838;2023-04-15T12:41:53;3.15;;;2.63;;
39370;SDS011;25099;51.946;4.838;2023-04-15T12:44:22;3.85;;;2.80;;
39370;SDS011;25099;51.946;4.838;2023-04-15T12:46:48;5.03;;;3.72;;
39370;SDS011;25099;51.946;4.838;2023-04-15T12:49:14;11.18;;;3.92;;
39370;SDS011;25099;51.946;4.838;2023-04-15T12:51:43;8.45;;;3.28;;
39370;SDS011;25099;51.946;4.838;2023-04-15T12:54:09;7.35;;;4.47;;
39370;SDS011;25099;51.946;4.838;2023-04-15T12:56:35;4.70;;;3.38;;
39370;SDS011;25099;51.946;4.838;2023-04-15T12:59:00;3.10;;;2.72;;
39370;SDS011;25099;51.946;4.838;2023-04-15T13:01:26;4.75;;;2.60;;
39370;SDS011;25099;51.946;4.838;2023-04-15T13:03:52;10.50;;;2.40;;
39370;SDS011;25099;51.946;4.838;2023-04-15T13:06:17;8.02;;;2.67;;
39370;SDS011;25099;51.946;4.838;2023-04-15T13:08:43;3.20;;;2.85;;
39370;SDS011;25099;51.946;4.838;2023-04-15T13:11:09;2.80;;;2.50;;
39370;SDS011;25099;51.946;4.838;2023-04-15T13:13:34;2.63;;;2.33;;
39370;SDS011;25099;51.946;4.838;2023-04-15T13:16:00;2.70;;;1.98;;
39370;SDS011;25099;51.946;4.838;2023-04-15T13:18:26;5.05;;;2.20;;
39370;SDS011;25099;51.946;4.838;2023-04-15T13:20:51;3.75;;;1.95;;
39370;SDS011;25099;51.946;4.838;2023-04-15T13:23:18;7.60;;;2.38;;
39370;SDS011;25099;51.946;4.838;2023-04-15T13:25:44;2.78;;;2.40;;
39370;SDS011;25099;51.946;4.838;2023-04-15T13:28:10;5.47;;;2.58;;
39370;SDS011;25099;51.946;4.838;2023-04-15T13:30:36;1.95;;;1.75;;
39370;SDS011;25099;51.946;4.838;2023-04-15T13:33:02;2.15;;;1.95;;
39370;SDS011;25099;51.946;4.838;2023-04-15T13:35:28;2.78;;;1.88;;
39370;SDS011;25099;51.946;4.838;2023-04-15T13:37:54;3.42;;;2.13;;
39370;SDS011;25099;51.946;4.838;2023-04-15T13:40:20;3.50;;;1.88;;
39370;SDS011;25099;51.946;4.838;2023-04-15T13:42:45;1.88;;;1.70;;
39370;SDS011;25099;51.946;4.838;2023-04-15T13:45:11;2.13;;;1.90;;
39370;SDS011;25099;51.946;4.838;2023-04-15T13:47:37;2.22;;;1.60;;
39370;SDS011;25099;51.946;4.838;2023-04-15T13:50:02;5.32;;;2.47;;
39370;SDS011;25099;51.946;4.838;2023-04-15T13:52:28;4.80;;;1.90;;
39370;SDS011;25099;51.946;4.838;2023-04-15T13:54:54;5.85;;;2.22;;
39370;SDS011;25099;51.946;4.838;2023-04-15T13:57:20;3.22;;;2.53;;
39370;SDS011;25099;51.946;4.838;2023-04-15T13:59:45;5.13;;;2.30;;
39370;SDS011;25099;51.946;4.838;2023-04-15T14:02:11;6.22;;;2.35;;
39370;SDS011;25099;51.946;4.838;2023-04-15T14:04:37;4.70;;;3.10;;
39370;SDS011;25099;51.946;4.838;2023-04-15T14:07:02;6.40;;;2.65;;
39370;SDS011;25099;51.946;4.838;2023-04-15T14:09:28;6.40;;;2.67;;
39370;SDS011;25099;51.946;4.838;2023-04-15T14:11:54;4.40;;;2.47;;
39370;SDS011;25099;51.946;4.838;2023-04-15T14:14:20;6.57;;;3.30;;
39370;SDS011;25099;51.946;4.838;2023-04-15T14:16:45;5.07;;;2.53;;
39370;SDS011;25099;51.946;4.838;2023-04-15T14:19:12;5.20;;;2.70;;
39370;SDS011;25099;51.946;4.838;2023-04-15T14:21:38;17.63;;;4.47;;
39370;SDS011;25099;51.946;4.838;2023-04-15T14:24:03;4.82;;;2.38;;
39370;SDS011;25099;51.946;4.838;2023-04-15T14:26:29;9.75;;;2.75;;
39370;SDS011;25099;51.946;4.838;2023-04-15T14:28:55;8.80;;;2.25;;
39370;SDS011;25099;51.946;4.838;2023-04-15T14:31:21;7.30;;;2.42;;
39370;SDS011;25099;51.946;4.838;2023-04-15T14:33:46;4.45;;;3.00;;
39370;SDS011;25099;51.946;4.838;2023-04-15T14:36:12;3.35;;;2.42;;
39370;SDS011;25099;51.946;4.838;2023-04-15T14:38:37;8.93;;;2.78;;
39370;SDS011;25099;51.946;4.838;2023-04-15T14:41:07;4.78;;;2.97;;
39370;SDS011;25099;51.946;4.838;2023-04-15T14:43:34;8.57;;;2.53;;
39370;SDS011;25099;51.946;4.838;2023-04-15T14:46:00;9.48;;;2.47;;
39370;SDS011;25099;51.946;4.838;2023-04-15T14:48:26;4.65;;;2.15;;
39370;SDS011;25099;51.946;4.838;2023-04-15T14:50:52;6.45;;;2.38;;
39370;SDS011;25099;51.946;4.838;2023-04-15T14:53:18;3.33;;;1.98;;
39370;SDS011;25099;51.946;4.838;2023-04-15T14:55:44;1.92;;;1.30;;
39370;SDS011;25099;51.946;4.838;2023-04-15T14:58:10;5.45;;;2.05;;
39370;SDS011;25099;51.946;4.838;2023-04-15T15:00:36;2.13;;;1.63;;
39370;SDS011;25099;51.946;4.838;2023-04-15T15:03:05;5.05;;;1.90;;
39370;SDS011;25099;51.946;4.838;2023-04-15T15:05:43;3.70;;;1.58;;
39370;SDS011;25099;51.946;4.838;2023-04-15T15:08:10;4.18;;;1.70;;
39370;SDS011;25099;51.946;4.838;2023-04-15T15:10:40;4.87;;;1.80;;
39370;SDS011;25099;51.946;4.838;2023-04-15T15:13:06;4.15;;;1.80;;
39370;SDS011;25099;51.946;4.838;2023-04-15T15:15:36;8.73;;;2.58;;
39370;SDS011;25099;51.946;4.838;2023-04-15T15:18:02;3.03;;;1.45;;
39370;SDS011;25099;51.946;4.838;2023-04-15T15:20:30;4.53;;;1.75;;
39370;SDS011;25099;51.946;4.838;2023-04-15T15:23:04;2.30;;;1.42;;
39370;SDS011;25099;51.946;4.838;2023-04-15T15:26:11;3.63;;;1.75;;
39370;SDS011;25099;51.946;4.838;2023-04-15T15:29:15;4.10;;;1.73;;
39370;SDS011;25099;51.946;4.838;2023-04-15T15:34:40;6.50;;;2.13;;
39370;SDS011;25099;51.946;4.838;2023-04-15T15:38:03;4.07;;;1.38;;
39370;SDS011;25099;51.946;4.838;2023-04-15T15:40:41;4.40;;;1.65;;
39370;SDS011;25099;51.946;4.838;2023-04-15T15:43:10;2.83;;;1.45;;
39370;SDS011;25099;51.946;4.838;2023-04-15T15:51:49;6.13;;;1.60;;
39370;SDS011;25099;51.946;4.838;2023-04-15T15:54:17;8.50;;;1.50;;
39370;SDS011;25099;51.946;4.838;2023-04-15T15:56:49;3.42;;;1.90;;
39370;SDS011;25099;51.946;4.838;2023-04-15T15:59:23;3.88;;;1.98;;
39370;SDS011;25099;51.946;4.838;2023-04-15T16:02:02;9.80;;;1.90;;
39370;SDS011;25099;51.946;4.838;2023-04-15T16:04:28;4.65;;;2.00;;
39370;SDS011;25099;51.946;4.838;2023-04-15T16:07:00;6.35;;;1.98;;
39370;SDS011;25099;51.946;4.838;2023-04-15T16:09:37;3.70;;;1.65;;
39370;SDS011;25099;51.946;4.838;2023-04-15T16:12:07;8.55;;;1.95;;
39370;SDS011;25099;51.946;4.838;2023-04-15T16:14:45;12.60;;;2.22;;
39370;SDS011;25099;51.946;4.838;2023-04-15T16:17:29;5.28;;;1.80;;
39370;SDS011;25099;51.946;4.838;2023-04-15T16:20:03;4.38;;;1.80;;
39370;SDS011;25099;51.946;4.838;2023-04-15T16:22:42;5.18;;;1.38;;
39370;SDS011;25099;51.946;4.838;2023-04-15T16:25:23;2.83;;;1.83;;
39370;SDS011;25099;51.946;4.838;2023-04-15T16:28:01;5.45;;;1.85;;
39370;SDS011;25099;51.946;4.838;2023-04-15T16:30:44;5.72;;;1.50;;
39370;SDS011;25099;51.946;4.838;2023-04-15T16:33:15;4.88;;;1.60;;
39370;SDS011;25099;51.946;4.838;2023-04-15T16:35:40;5.57;;;1.40;;
39370;SDS011;25099;51.946;4.838;2023-04-15T16:38:08;3.20;;;1.20;;
39370;SDS011;25099;51.946;4.838;2023-04-15T16:40:35;4.75;;;1.33;;
39370;SDS011;25099;51.946;4.838;2023-04-15T16:43:13;4.95;;;1.33;;
39370;SDS011;25099;51.946;4.838;2023-04-15T16:45:38;5.07;;;1.20;;
39370;SDS011;25099;51.946;4.838;2023-04-15T16:48:19;2.95;;;1.35;;
39370;SDS011;25099;51.946;4.838;2023-04-15T16:50:46;8.70;;;1.50;;
39370;SDS011;25099;51.946;4.838;2023-04-15T16:56:12;4.30;;;1.67;;
39370;SDS011;25099;51.946;4.838;2023-04-15T16:58:38;5.35;;;1.70;;